sensor_id;sensor_type;location;lat;lon;timestamp;pressure;altitude;pressure_sealevel;temperature;humidity
16016;BME280;8112;53.592;10.184;2023-02-26T00:00:00;101316.59;;;-1.56;100.00
16016;BME280;8112;53.592;10.184;2023-02-26T00:05:09;101323.50;;;-1.60;100.00
16016;BME280;8112;53.592;10.184;2023-02-26T00:10:12;101332.13;;;-1.58;100.00
16016;BME280;8112;53.592;10.184;2023-02-26T00:15:15;101341.59;;;-1.52;100.00
16016;BME280;8112;53.592;10.184;2023-02-26T00:20:19;101352.78;;;-1.58;100.00
16016;BME280;8112;53.592;10.184;2023-02-26T00:25:21;101356.25;;;-1.59;100.00
16016;BME280;8112;53.592;10.184;2023-02-26T00:30:23;101369.16;;;-1.59;100.00
16016;BME280;8112;53.592;10.184;2023-02-26T00:35:27;101373.47;;;-1.64;100.00
16016;BME280;8112;53.592;10.184;2023-02-26T00:40:35;101377.75;;;-1.67;100.00
16016;BME280;8112;53.592;10.184;2023-02-26T00:45:43;101381.19;;;-1.70;100.00
16016;BME280;8112;53.592;10.184;2023-02-26T00:50:52;101394.13;;;-1.68;100.00
16016;BME280;8112;53.592;10.184;2023-02-26T00:55:57;101403.63;;;-1.56;100.00
16016;BME280;8112;53.592;10.184;2023-02-26T01:00:59;101401.94;;;-1.31;100.00
16016;BME280;8112;53.592;10.184;2023-02-26T01:06:03;101407.13;;;-1.02;100.00
16016;BME280;8112;53.592;10.184;2023-02-26T01:11:06;101405.41;;;-1.06;100.00
16016;BME280;8112;53.592;10.184;2023-02-26T01:16:11;101424.34;;;-1.29;100.00
16016;BME280;8112;53.592;10.184;2023-02-26T01:21:18;101424.38;;;-1.25;100.00
16016;BME280;8112;53.592;10.184;2023-02-26T01:26:22;101429.56;;;-1.22;100.00
16016;BME280;8112;53.592;10.184;2023-02-26T01:31:45;101434.72;;;-1.19;100.00
16016;BME280;8112;53.592;10.184;2023-02-26T01:36:54;101437.31;;;-1.19;100.00
16016;BME280;8112;53.592;10.184;2023-02-26T01:41:59;101447.66;;;-1.02;100.00
16016;BME280;8112;53.592;10.184;2023-02-26T01:47:11;101449.41;;;-0.98;100.00
16016;BME280;8112;53.592;10.184;2023-02-26T01:58:06;101444.22;;;-1.09;100.00
16016;BME280;8112;53.592;10.184;2023-02-26T02:03:08;101447.69;;;-0.99;100.00
16016;BME280;8112;53.592;10.184;2023-02-26T02:08:11;101454.59;;;-0.98;100.00
16016;BME280;8112;53.592;10.184;2023-02-26T02:13:22;101476.97;;;-1.12;100.00
16016;BME280;8112;53.592;10.184;2023-02-26T02:18:35;101476.94;;;-1.34;100.00
16016;BME280;8112;53.592;10.184;2023-02-26T02:23:43;101488.09;;;-1.52;100.00
16016;BME280;8112;53.592;10.184;2023-02-26T02:29:02;101482.03;;;-1.64;100.00
16016;BME280;8112;53.592;10.184;2023-02-26T02:34:12;101500.94;;;-1.74;100.00
16016;BME280;8112;53.592;10.184;2023-02-26T02:39:21;101499.16;;;-1.83;100.00
16016;BME280;8112;53.592;10.184;2023-02-26T02:44:26;101502.59;;;-1.87;100.00
16016;BME280;8112;53.592;10.184;2023-02-26T02:49:35;101504.28;;;-1.94;100.00
16016;BME280;8112;53.592;10.184;2023-02-26T02:54:43;101518.91;;;-1.96;100.00
16016;BME280;8112;53.592;10.184;2023-02-26T02:59:49;101520.59;;;-2.03;100.00
16016;BME280;8112;53.592;10.184;2023-02-26T03:04:53;101536.91;;;-2.05;100.00
16016;BME280;8112;53.592;10.184;2023-02-26T03:09:56;101548.94;;;-2.12;100.00
16016;BME280;8112;53.592;10.184;2023-02-26T03:14:58;101550.66;;;-2.16;100.00
16016;BME280;8112;53.592;10.184;2023-02-26T03:20:13;101562.66;;;-2.22;100.00
16016;BME280;8112;53.592;10.184;2023-02-26T03:25:22;101558.28;;;-2.28;100.00
16016;BME280;8112;53.592;10.184;2023-02-26T03:30:31;101572.94;;;-2.24;100.00
16016;BME280;8112;53.592;10.184;2023-02-26T03:35:41;101578.94;;;-2.31;100.00
16016;BME280;8112;53.592;10.184;2023-02-26T03:40:49;101584.06;;;-2.37;100.00
16016;BME280;8112;53.592;10.184;2023-02-26T03:45:55;101594.31;;;-2.44;100.00
16016;BME280;8112;53.592;10.184;2023-02-26T03:51:03;101603.72;;;-2.49;100.00
16016;BME280;8112;53.592;10.184;2023-02-26T03:56:29;101602.91;;;-2.45;100.00
16016;BME280;8112;53.592;10.184;2023-02-26T04:01:53;101613.22;;;-2.48;100.00
16016;BME280;8112;53.592;10.184;2023-02-26T04:06:59;101615.66;;;-2.62;100.00
16016;BME280;8112;53.592;10.184;2023-02-26T04:12:01;101628.53;;;-2.63;100.00
16016;BME280;8112;53.592;10.184;2023-02-26T04:17:04;101632.78;;;-2.68;100.00
16016;BME280;8112;53.592;10.184;2023-02-26T04:22:08;101631.97;;;-2.64;100.00
16016;BME280;8112;53.592;10.184;2023-02-26T04:27:11;101641.34;;;-2.71;100.00
16016;BME280;8112;53.592;10.184;2023-02-26T04:32:13;101649.94;;;-2.74;100.00
16016;BME280;8112;53.592;10.184;2023-02-26T04:37:16;101653.38;;;-2.73;100.00
16016;BME280;8112;53.592;10.184;2023-02-26T04:42:18;101663.66;;;-2.76;100.00
16016;BME280;8112;53.592;10.184;2023-02-26T04:47:21;101667.09;;;-2.77;100.00
16016;BME280;8112;53.592;10.184;2023-02-26T04:52:25;101669.63;;;-2.82;100.00
16016;BME280;8112;53.592;10.184;2023-02-26T04:57:26;101678.19;;;-2.86;100.00
16016;BME280;8112;53.592;10.184;2023-02-26T05:02:28;101686.66;;;-2.93;100.00
16016;BME280;8112;53.592;10.184;2023-02-26T05:07:32;101695.22;;;-2.97;100.00
16016;BME280;8112;53.592;10.184;2023-02-26T05:12:33;101697.78;;;-3.01;100.00
16016;BME280;8112;53.592;10.184;2023-02-26T05:17:35;101719.28;;;-2.98;100.00
16016;BME280;8112;53.592;10.184;2023-02-26T05:22:38;101717.56;;;-2.99;100.00
16016;BME280;8112;53.592;10.184;2023-02-26T05:27:41;101732.97;;;-3.06;100.00
16016;BME280;8112;53.592;10.184;2023-02-26T05:32:44;101720.06;;;-3.06;100.00
16016;BME280;8112;53.592;10.184;2023-02-26T05:37:47;101734.50;;;-3.17;100.00
16016;BME280;8112;53.592;10.184;2023-02-26T05:42:49;101742.25;;;-3.19;100.00
16016;BME280;8112;53.592;10.184;2023-02-26T05:47:51;101750.75;;;-3.23;100.00
16016;BME280;8112;53.592;10.184;2023-02-26T05:52:54;101758.53;;;-3.21;100.00
16016;BME280;8112;53.592;10.184;2023-02-26T05:57:55;101772.34;;;-3.16;100.00
16016;BME280;8112;53.592;10.184;2023-02-26T06:02:57;101772.34;;;-3.16;100.00
16016;BME280;8112;53.592;10.184;2023-02-26T06:08:00;101776.63;;;-3.20;100.00
16016;BME280;8112;53.592;10.184;2023-02-26T06:13:02;101780.84;;;-3.22;100.00
16016;BME280;8112;53.592;10.184;2023-02-26T06:18:07;101793.69;;;-3.26;100.00
16016;BME280;8112;53.592;10.184;2023-02-26T06:23:10;101800.59;;;-3.25;100.00
16016;BME280;8112;53.592;10.184;2023-02-26T06:28:11;101802.31;;;-3.24;100.00
16016;BME280;8112;53.592;10.184;2023-02-26T06:33:13;101816.94;;;-3.23;100.00
16016;BME280;8112;53.592;10.184;2023-02-26T06:38:17;101821.38;;;-3.15;100.00
16016;BME280;8112;53.592;10.184;2023-02-26T06:43:18;101829.28;;;-3.04;100.00
16016;BME280;8112;53.592;10.184;2023-02-26T06:48:20;101840.59;;;-2.94;100.00
16016;BME280;8112;53.592;10.184;2023-02-26T06:53:23;101848.56;;;-2.78;100.00
16016;BME280;8112;53.592;10.184;2023-02-26T06:58:25;101848.88;;;-2.55;100.00
16016;BME280;8112;53.592;10.184;2023-02-26T07:03:27;101859.63;;;-2.21;100.00
16016;BME280;8112;53.592;10.184;2023-02-26T07:08:30;101852.28;;;-1.87;100.00
16016;BME280;8112;53.592;10.184;2023-02-26T07:13:32;101878.53;;;-1.45;100.00
16016;BME280;8112;53.592;10.184;2023-02-26T07:18:33;101885.75;;;-1.06;100.00
16016;BME280;8112;53.592;10.184;2023-02-26T07:23:37;101883.44;;;-0.70;100.00
16016;BME280;8112;53.592;10.184;2023-02-26T07:28:38;101892.19;;;-0.50;100.00
16016;BME280;8112;53.592;10.184;2023-02-26T07:33:40;101894.03;;;-0.30;100.00
16016;BME280;8112;53.592;10.184;2023-02-26T07:38:43;101895.78;;;-0.20;100.00
16016;BME280;8112;53.592;10.184;2023-02-26T07:43:45;101899.13;;;-0.43;100.00
16016;BME280;8112;53.592;10.184;2023-02-26T07:48:46;101905.19;;;-0.40;100.00
16016;BME280;8112;53.592;10.184;2023-02-26T07:53:49;101907.88;;;-0.22;100.00
16016;BME280;8112;53.592;10.184;2023-02-26T07:58:51;101908.00;;;0.02;100.00
16016;BME280;8112;53.592;10.184;2023-02-26T08:03:53;101921.84;;;0.08;100.00
16016;BME280;8112;53.592;10.184;2023-02-26T08:08:56;101920.97;;;0.09;100.00
16016;BME280;8112;53.592;10.184;2023-02-26T08:13:58;101921.03;;;0.19;100.00
16016;BME280;8112;53.592;10.184;2023-02-26T08:18:59;101915.88;;;0.33;100.00
16016;BME280;8112;53.592;10.184;2023-02-26T08:24:03;101936.63;;;0.33;100.00
16016;BME280;8112;53.592;10.184;2023-02-26T08:29:06;101942.69;;;0.42;100.00
16016;BME280;8112;53.592;10.184;2023-02-26T08:34:08;101950.53;;;0.66;100.00
16016;BME280;8112;53.592;10.184;2023-02-26T08:39:11;101958.34;;;0.80;100.00
16016;BME280;8112;53.592;10.184;2023-02-26T08:44:13;101969.63;;;0.94;100.00
16016;BME280;8112;53.592;10.184;2023-02-26T08:49:14;101983.47;;;1.01;100.00
16016;BME280;8112;53.592;10.184;2023-02-26T08:54:18;102005.13;;;1.17;100.00
16016;BME280;8112;53.592;10.184;2023-02-26T08:59:19;101987.81;;;1.38;100.00
16016;BME280;8112;53.592;10.184;2023-02-26T09:04:21;102005.97;;;1.41;100.00
16016;BME280;8112;53.592;10.184;2023-02-26T09:09:24;102012.91;;;1.42;100.00
16016;BME280;8112;53.592;10.184;2023-02-26T09:14:26;102020.72;;;1.44;100.00
16016;BME280;8112;53.592;10.184;2023-02-26T09:19:27;102015.50;;;1.62;100.00
16016;BME280;8112;53.592;10.184;2023-02-26T09:24:30;102023.28;;;1.78;100.00
16016;BME280;8112;53.592;10.184;2023-02-26T09:29:32;102030.16;;;2.08;100.00
16016;BME280;8112;53.592;10.184;2023-02-26T09:34:34;102039.69;;;1.97;100.00
16016;BME280;8112;53.592;10.184;2023-02-26T09:39:37;102037.94;;;2.08;100.00
16016;BME280;8112;53.592;10.184;2023-02-26T09:44:39;102044.00;;;2.15;100.00
16016;BME280;8112;53.592;10.184;2023-02-26T09:49:49;102043.94;;;2.34;100.00
16016;BME280;8112;53.592;10.184;2023-02-26T09:54:57;102051.59;;;2.73;100.00
16016;BME280;8112;53.592;10.184;2023-02-26T10:00:01;102048.09;;;2.78;100.00
16016;BME280;8112;53.592;10.184;2023-02-26T10:05:18;102055.75;;;3.05;100.00
16016;BME280;8112;53.592;10.184;2023-02-26T10:10:30;102069.50;;;3.27;100.00
16016;BME280;8112;53.592;10.184;2023-02-26T10:15:37;102052.09;;;3.34;100.00
16016;BME280;8112;53.592;10.184;2023-02-26T10:20:45;102058.16;;;3.36;100.00
16016;BME280;8112;53.592;10.184;2023-02-26T10:25:53;102070.34;;;3.27;100.00
16016;BME280;8112;53.592;10.184;2023-02-26T10:30:59;102071.06;;;3.50;100.00
16016;BME280;8112;53.592;10.184;2023-02-26T10:36:13;102079.66;;;3.63;100.00
16016;BME280;8112;53.592;10.184;2023-02-26T10:41:24;102079.16;;;4.17;100.00
16016;BME280;8112;53.592;10.184;2023-02-26T10:46:34;102081.38;;;4.53;100.00
16016;BME280;8112;53.592;10.184;2023-02-26T10:51:39;102090.03;;;4.58;100.00
16016;BME280;8112;53.592;10.184;2023-02-26T10:56:42;102092.19;;;4.20;100.00
16016;BME280;8112;53.592;10.184;2023-02-26T11:01:44;102092.53;;;4.66;100.00
16016;BME280;8112;53.592;10.184;2023-02-26T11:06:50;102102.59;;;4.97;100.00
16016;BME280;8112;53.592;10.184;2023-02-26T11:11:55;102104.66;;;5.36;100.00
16016;BME280;8112;53.592;10.184;2023-02-26T11:17:03;102110.56;;;5.49;100.00
16016;BME280;8112;53.592;10.184;2023-02-26T11:22:11;102109.47;;;5.04;100.00
16016;BME280;8112;53.592;10.184;2023-02-26T11:27:18;102116.91;;;5.87;100.00
16016;BME280;8112;53.592;10.184;2023-02-26T11:32:22;102115.44;;;7.48;100.00
16016;BME280;8112;53.592;10.184;2023-02-26T11:37:27;102116.47;;;8.45;100.00
16016;BME280;8112;53.592;10.184;2023-02-26T11:42:34;102105.53;;;7.96;98.03
16016;BME280;8112;53.592;10.184;2023-02-26T11:47:38;102103.22;;;6.24;99.78
16016;BME280;8112;53.592;10.184;2023-02-26T11:52:41;102112.06;;;5.64;100.00
16016;BME280;8112;53.592;10.184;2023-02-26T11:57:50;102116.44;;;5.05;100.00
16016;BME280;8112;53.592;10.184;2023-02-26T12:02:57;102121.31;;;4.61;100.00
16016;BME280;8112;53.592;10.184;2023-02-26T12:08:02;102120.97;;;4.89;100.00
16016;BME280;8112;53.592;10.184;2023-02-26T12:13:19;102115.81;;;6.01;100.00
16016;BME280;8112;53.592;10.184;2023-02-26T12:18:36;102116.22;;;5.76;100.00
16016;BME280;8112;53.592;10.184;2023-02-26T12:24:05;102111.06;;;5.14;100.00
16016;BME280;8112;53.592;10.184;2023-02-26T12:29:30;102119.47;;;4.69;100.00
16016;BME280;8112;53.592;10.184;2023-02-26T12:34:46;102125.16;;;5.04;100.00
16016;BME280;8112;53.592;10.184;2023-02-26T12:40:04;102105.09;;;5.64;100.00
16016;BME280;8112;53.592;10.184;2023-02-26T12:45:23;102108.72;;;7.38;100.00
16016;BME280;8112;53.592;10.184;2023-02-26T12:50:50;102095.97;;;6.39;100.00
16016;BME280;8112;53.592;10.184;2023-02-26T12:56:03;102105.03;;;5.69;100.00
16016;BME280;8112;53.592;10.184;2023-02-26T13:01:22;102113.47;;;5.28;100.00
16016;BME280;8112;53.592;10.184;2023-02-26T13:06:47;102112.63;;;6.35;100.00
16016;BME280;8112;53.592;10.184;2023-02-26T13:12:08;102110.28;;;7.07;100.00
16016;BME280;8112;53.592;10.184;2023-02-26T13:17:21;102109.47;;;6.16;100.00
16016;BME280;8112;53.592;10.184;2023-02-26T13:22:29;102109.38;;;5.67;100.00
16016;BME280;8112;53.592;10.184;2023-02-26T13:27:33;102109.69;;;6.03;100.00
16016;BME280;8112;53.592;10.184;2023-02-26T13:32:39;102118.00;;;5.74;100.00
16016;BME280;8112;53.592;10.184;2023-02-26T13:37:46;102118.56;;;5.38;100.00
16016;BME280;8112;53.592;10.184;2023-02-26T13:42:52;102120.06;;;4.92;100.00
16016;BME280;8112;53.592;10.184;2023-02-26T13:48:13;102117.31;;;5.03;100.00
16016;BME280;8112;53.592;10.184;2023-02-26T13:53:50;102125.84;;;5.16;100.00
16016;BME280;8112;53.592;10.184;2023-02-26T13:58:53;102122.63;;;4.96;100.00
16016;BME280;8112;53.592;10.184;2023-02-26T14:04:21;102124.56;;;4.82;100.00
16016;BME280;8112;53.592;10.184;2023-02-26T14:09:35;102126.38;;;5.96;100.00
16016;BME280;8112;53.592;10.184;2023-02-26T14:14:39;102126.28;;;6.51;100.00
16016;BME280;8112;53.592;10.184;2023-02-26T14:19:44;102118.88;;;7.87;100.00
16016;BME280;8112;53.592;10.184;2023-02-26T14:25:15;102125.94;;;6.22;100.00
16016;BME280;8112;53.592;10.184;2023-02-26T14:30:26;102133.03;;;5.61;100.00
16016;BME280;8112;53.592;10.184;2023-02-26T14:35:32;102142.72;;;4.91;100.00
16016;BME280;8112;53.592;10.184;2023-02-26T14:40:38;102137.88;;;4.59;100.00
16016;BME280;8112;53.592;10.184;2023-02-26T14:45:41;102138.03;;;5.18;100.00
16016;BME280;8112;53.592;10.184;2023-02-26T14:50:51;102132.91;;;6.22;100.00
16016;BME280;8112;53.592;10.184;2023-02-26T14:56:05;102135.53;;;5.67;100.00
16016;BME280;8112;53.592;10.184;2023-02-26T15:01:19;102146.91;;;5.05;100.00
16016;BME280;8112;53.592;10.184;2023-02-26T15:06:51;102152.75;;;4.53;100.00
16016;BME280;8112;53.592;10.184;2023-02-26T15:12:11;102142.41;;;4.42;100.00
16016;BME280;8112;53.592;10.184;2023-02-26T15:17:32;102144.47;;;4.09;100.00
16016;BME280;8112;53.592;10.184;2023-02-26T15:22:50;102149.75;;;4.03;100.00
16016;BME280;8112;53.592;10.184;2023-02-26T15:27:55;102161.75;;;4.23;100.00
16016;BME280;8112;53.592;10.184;2023-02-26T15:32:59;102164.06;;;4.52;100.00
16016;BME280;8112;53.592;10.184;2023-02-26T15:38:03;102157.88;;;4.60;100.00
16016;BME280;8112;53.592;10.184;2023-02-26T15:43:06;102154.56;;;4.45;100.00
16016;BME280;8112;53.592;10.184;2023-02-26T15:48:13;102160.09;;;4.11;100.00
16016;BME280;8112;53.592;10.184;2023-02-26T15:53:23;102169.09;;;3.73;100.00
16016;BME280;8112;53.592;10.184;2023-02-26T15:58:33;102171.94;;;3.35;100.00
16016;BME280;8112;53.592;10.184;2023-02-26T16:03:37;102183.34;;;3.17;100.00
16016;BME280;8112;53.592;10.184;2023-02-26T16:08:40;102186.00;;;3.03;100.00
16016;BME280;8112;53.592;10.184;2023-02-26T16:13:42;102193.00;;;2.93;100.00
16016;BME280;8112;53.592;10.184;2023-02-26T16:18:45;102195.63;;;2.85;100.00
16016;BME280;8112;53.592;10.184;2023-02-26T16:23:49;102196.50;;;2.80;100.00
16016;BME280;8112;53.592;10.184;2023-02-26T16:28:56;102200.78;;;2.96;100.00
16016;BME280;8112;53.592;10.184;2023-02-26T16:34:02;102209.50;;;2.83;100.00
16016;BME280;8112;53.592;10.184;2023-02-26T16:39:16;102223.44;;;2.57;100.00
16016;BME280;8112;53.592;10.184;2023-02-26T16:44:56;102220.84;;;2.40;100.00
16016;BME280;8112;53.592;10.184;2023-02-26T16:50:02;102231.28;;;2.31;100.00
16016;BME280;8112;53.592;10.184;2023-02-26T16:55:09;102246.00;;;2.27;100.00
16016;BME280;8112;53.592;10.184;2023-02-26T17:00:21;102251.19;;;2.14;100.00
16016;BME280;8112;53.592;10.184;2023-02-26T17:05:32;102258.13;;;1.95;100.00
16016;BME280;8112;53.592;10.184;2023-02-26T17:10:43;102261.53;;;1.74;100.00
16016;BME280;8112;53.592;10.184;2023-02-26T17:15:46;102258.91;;;1.57;100.00
16016;BME280;8112;53.592;10.184;2023-02-26T17:20:48;102276.16;;;1.41;100.00
16016;BME280;8112;53.592;10.184;2023-02-26T17:25:52;102277.88;;;1.36;100.00
16016;BME280;8112;53.592;10.184;2023-02-26T17:30:55;102280.47;;;1.36;100.00
16016;BME280;8112;53.592;10.184;2023-02-26T17:35:59;102280.47;;;1.33;100.00
16016;BME280;8112;53.592;10.184;2023-02-26T17:41:02;102284.78;;;1.34;100.00
16016;BME280;8112;53.592;10.184;2023-02-26T17:46:04;102282.13;;;1.24;100.00
16016;BME280;8112;53.592;10.184;2023-02-26T17:51:07;102293.31;;;1.06;100.00
16016;BME280;8112;53.592;10.184;2023-02-26T17:56:14;102295.88;;;1.02;100.00
16016;BME280;8112;53.592;10.184;2023-02-26T18:01:17;102304.44;;;0.88;100.00
16016;BME280;8112;53.592;10.184;2023-02-26T18:06:20;102307.03;;;0.83;100.00
16016;BME280;8112;53.592;10.184;2023-02-26T18:11:23;102302.59;;;0.71;100.00
16016;BME280;8112;53.592;10.184;2023-02-26T18:16:33;102314.66;;;0.66;100.00
16016;BME280;8112;53.592;10.184;2023-02-26T18:21:35;102309.44;;;0.62;100.00
16016;BME280;8112;53.592;10.184;2023-02-26T18:26:38;102324.97;;;0.57;100.00
16016;BME280;8112;53.592;10.184;2023-02-26T18:31:40;102336.22;;;0.56;100.00
16016;BME280;8112;53.592;10.184;2023-02-26T18:36:41;102323.13;;;0.44;100.00
16016;BME280;8112;53.592;10.184;2023-02-26T18:41:45;102323.84;;;0.30;100.00
16016;BME280;8112;53.592;10.184;2023-02-26T18:46:46;102326.38;;;0.21;100.00
16016;BME280;8112;53.592;10.184;2023-02-26T18:51:48;102322.88;;;0.17;100.00
16016;BME280;8112;53.592;10.184;2023-02-26T18:56:52;102335.03;;;0.24;100.00
16016;BME280;8112;53.592;10.184;2023-02-26T19:01:53;102327.25;;;0.23;100.00
16016;BME280;8112;53.592;10.184;2023-02-26T19:06:55;102326.31;;;0.18;100.00
16016;BME280;8112;53.592;10.184;2023-02-26T19:11:58;102324.53;;;0.10;100.00
16016;BME280;8112;53.592;10.184;2023-02-26T19:17:00;102331.31;;;-0.01;100.00
16016;BME280;8112;53.592;10.184;2023-02-26T19:22:02;102326.91;;;-0.10;100.00
16016;BME280;8112;53.592;10.184;2023-02-26T19:27:05;102336.38;;;-0.12;100.00
16016;BME280;8112;53.592;10.184;2023-02-26T19:32:07;102338.09;;;-0.16;100.00
16016;BME280;8112;53.592;10.184;2023-02-26T19:37:09;102332.81;;;-0.22;100.00
16016;BME280;8112;53.592;10.184;2023-02-26T19:42:12;102336.22;;;-0.26;100.00
16016;BME280;8112;53.592;10.184;2023-02-26T19:47:14;102337.88;;;-0.33;100.00
16016;BME280;8112;53.592;10.184;2023-02-26T19:52:16;102336.81;;;-0.47;100.00
16016;BME280;8112;53.592;10.184;2023-02-26T19:57:19;102348.88;;;-0.49;100.00
16016;BME280;8112;53.592;10.184;2023-02-26T20:02:21;102349.63;;;-0.58;100.00
16016;BME280;8112;53.592;10.184;2023-02-26T20:07:23;102352.00;;;-0.75;100.00
16016;BME280;8112;53.592;10.184;2023-02-26T20:12:27;102355.28;;;-0.87;100.00
16016;BME280;8112;53.592;10.184;2023-02-26T20:17:29;102367.34;;;-0.88;100.00
16016;BME280;8112;53.592;10.184;2023-02-26T20:22:31;102367.59;;;-0.69;100.00
16016;BME280;8112;53.592;10.184;2023-02-26T20:27:34;102378.16;;;-0.55;100.00
16016;BME280;8112;53.592;10.184;2023-02-26T20:32:36;102379.06;;;-0.53;100.00
16016;BME280;8112;53.592;10.184;2023-02-26T20:37:38;102380.75;;;-0.55;100.00
16016;BME280;8112;53.592;10.184;2023-02-26T20:42:41;102387.59;;;-0.62;100.00
16016;BME280;8112;53.592;10.184;2023-02-26T20:47:43;102385.84;;;-0.63;100.00
16016;BME280;8112;53.592;10.184;2023-02-26T20:52:45;102394.47;;;-0.62;100.00
16016;BME280;8112;53.592;10.184;2023-02-26T20:57:48;102397.91;;;-0.63;100.00
16016;BME280;8112;53.592;10.184;2023-02-26T21:02:50;102402.16;;;-0.68;100.00
16016;BME280;8112;53.592;10.184;2023-02-26T21:07:53;102403.84;;;-0.69;100.00
16016;BME280;8112;53.592;10.184;2023-02-26T21:12:56;102407.22;;;-0.75;100.00
16016;BME280;8112;53.592;10.184;2023-02-26T21:17:57;102411.38;;;-0.84;100.00
16016;BME280;8112;53.592;10.184;2023-02-26T21:22:59;102413.97;;;-0.86;100.00
16016;BME280;8112;53.592;10.184;2023-02-26T21:28:02;102416.59;;;-0.83;100.00
16016;BME280;8112;53.592;10.184;2023-02-26T21:33:04;102422.34;;;-1.01;100.00
16016;BME280;8112;53.592;10.184;2023-02-26T21:38:07;102434.03;;;-1.25;100.00
16016;BME280;8112;53.592;10.184;2023-02-26T21:43:10;102432.31;;;-1.24;100.00
16016;BME280;8112;53.592;10.184;2023-02-26T21:48:13;102434.19;;;-1.16;100.00
16016;BME280;8112;53.592;10.184;2023-02-26T21:53:15;102440.25;;;-1.13;100.00
16016;BME280;8112;53.592;10.184;2023-02-26T21:58:18;102447.13;;;-1.14;100.00
16016;BME280;8112;53.592;10.184;2023-02-26T22:03:19;102441.63;;;-1.33;100.00
16016;BME280;8112;53.592;10.184;2023-02-26T22:08:21;102453.53;;;-1.42;100.00
16016;BME280;8112;53.592;10.184;2023-02-26T22:13:24;102446.66;;;-1.42;100.00
16016;BME280;8112;53.592;10.184;2023-02-26T22:18:26;102446.81;;;-1.33;100.00
16016;BME280;8112;53.592;10.184;2023-02-26T22:23:28;102447.84;;;-1.24;100.00
16016;BME280;8112;53.592;10.184;2023-02-26T22:28:31;102439.22;;;-1.23;100.00
16016;BME280;8112;53.592;10.184;2023-02-26T22:33:33;102448.34;;;-1.44;100.00
16016;BME280;8112;53.592;10.184;2023-02-26T22:38:35;102443.88;;;-1.53;100.00
16016;BME280;8112;53.592;10.184;2023-02-26T22:43:38;102451.69;;;-1.48;100.00
16016;BME280;8112;53.592;10.184;2023-02-26T22:48:40;102446.72;;;-1.37;100.00
16016;BME280;8112;53.592;10.184;2023-02-26T22:53:41;102454.72;;;-1.26;100.00
16016;BME280;8112;53.592;10.184;2023-02-26T22:58:44;102451.47;;;-1.61;100.00
16016;BME280;8112;53.592;10.184;2023-02-26T23:03:46;102458.56;;;-1.93;100.00
16016;BME280;8112;53.592;10.184;2023-02-26T23:08:48;102461.81;;;-2.04;100.00
16016;BME280;8112;53.592;10.184;2023-02-26T23:13:51;102470.41;;;-2.03;100.00
16016;BME280;8112;53.592;10.184;2023-02-26T23:18:52;102460.97;;;-2.03;100.00
16016;BME280;8112;53.592;10.184;2023-02-26T23:23:54;102476.44;;;-2.04;100.00
16016;BME280;8112;53.592;10.184;2023-02-26T23:28:57;102470.41;;;-2.05;100.00
16016;BME280;8112;53.592;10.184;2023-02-26T23:33:59;102479.84;;;-2.05;100.00
16016;BME280;8112;53.592;10.184;2023-02-26T23:39:01;102481.94;;;-1.89;100.00
16016;BME280;8112;53.592;10.184;2023-02-26T23:44:04;102474.69;;;-2.05;100.00
16016;BME280;8112;53.592;10.184;2023-02-26T23:49:06;102483.16;;;-2.12;100.00
16016;BME280;8112;53.592;10.184;2023-02-26T23:54:08;102487.38;;;-2.16;100.00
16016;BME280;8112;53.592;10.184;2023-02-26T23:59:12;102483.78;;;-2.23;100.00
